• Join FlightAware (Why Join?)
  • Login
  • US Flag 
06:52PM EDT


 

Airport Tracker/Info


-or-


 

Live Flight TrackerFlight Track Log ✈ GLF21 ✈ 04-Dec-2009 ✈ KSAV - KSAV

Flight Track Log - Related Links

Times and Time Zones

All times are in EST time to prevent confusion due to time zone crossing. See the GLF21 flight status page for this flight to view local times or setup timezone preferences in your user account.

Time Position Orientation Groundspeed Altitude Reporting Facility
EST Latitude Longitude Course Direction KTS MPH feet Rate Location/Type
02:16PM 32.1211 -81.1486 106° East 224 258 2,800  Level Jacksonville Center
02:19PM 32.0700 -80.9436 173° South 191 220 3,000 240 Climbing Jacksonville Center
02:23PM 31.8881 -80.9156 212° Southwest 185 213 4,900 780 Climbing Jacksonville Center
02:27PM 31.7311 -81.0289 79° East 172 198 9,500 480 Climbing Jacksonville Center
02:32PM 31.7542 -80.8939 28° Northeast 257 296 9,500  Level Jacksonville Center
02:36PM 31.9586 -80.7647 North 245 282 9,500  Level Jacksonville Center
02:40PM 32.0919 -80.7517 193° South 184 212 9,700 -180 Climbing Jacksonville Center
02:44PM 31.9197 -80.7997 North 211 243 8,100 -120 Descending Jacksonville Center
02:48PM 31.9739 -80.7961 26° Northeast 237 273 9,000 180 Climbing Jacksonville Center
02:51PM 32.1453 -80.6967 42° Northeast 235 270 9,700  Climbing Jacksonville Center
02:55PM 32.2561 -80.5786 212° Southwest 176 203 9,400  Descending Jacksonville Center
02:59PM 32.1056 -80.6878 14° North 170 196 9,700 -60 Climbing Jacksonville Center
03:02PM 32.1803 -80.6664 62° Northeast 203 234 9,200 -360 Descending Jacksonville Center
03:07PM 32.2547 -80.5000 235° Southwest 212 244 7,000 -180 Descending Jacksonville Center
03:11PM 32.1572 -80.6619 312° West 193 222 8,100 180 Climbing Jacksonville Center
03:15PM 32.3153 -80.8669 289° West 201 231 8,500  Climbing Jacksonville Center
03:19PM 32.3900 -81.1211 273° West 209 241 8,600 -60 Climbing Jacksonville Center
03:23PM 32.4017 -81.3669 70° East 189 217 8,400 -60 Descending Jacksonville Center
03:28PM 32.4958 -81.0650 111° Southeast 259 298 8,500  Climbing Jacksonville Center
03:31PM 32.4192 -80.8328 168° South 267 307 8,500 -60 Level Jacksonville Center
03:35PM 32.1842 -80.7717 212° Southwest 187 215 8,300 -60 Descending Jacksonville Center
03:38PM 32.1058 -80.8300 318° Northwest 167 192 8,400 -300 Climbing Jacksonville Center
03:41PM 32.2269 -80.9597 302° West 172 198 6,600 -240 Descending Jacksonville Center
03:46PM 32.3278 -81.1544 277° West 163 188 6,900 -60 Climbing Jacksonville Center
03:51PM 32.3519 -81.4072 179° South 149 171 6,300 -480 Descending Jacksonville Center
03:55PM 32.1850 -81.4050 106° East 162 186 3,000 -840 Descending Jacksonville Center
04:07PM 32.1344 -81.1997 106° East 1 1 -300 Descending Jacksonville Center